createdAt,value
2019-02-24T00:02:12.558Z,8.18
2019-02-24T00:04:42.890Z,7.40
2019-02-24T00:07:13.140Z,8.25
2019-02-24T00:09:43.425Z,7.40
2019-02-24T00:12:13.657Z,7.83
2019-02-24T00:14:43.991Z,7.35
2019-02-24T00:17:14.576Z,7.35
2019-02-24T00:19:45.932Z,9.55
2019-02-24T00:22:16.137Z,7.50
2019-02-24T00:24:46.510Z,9.20
2019-02-24T00:27:16.822Z,8.90
2019-02-24T00:29:47.162Z,6.83
2019-02-24T00:32:17.403Z,7.62
2019-02-24T00:34:47.650Z,7.70
2019-02-24T00:37:17.974Z,8.38
2019-02-24T00:39:48.282Z,8.10
2019-02-24T00:42:18.472Z,8.40
2019-02-24T00:44:48.790Z,9.83
2019-02-24T00:47:19.022Z,7.72
2019-02-24T00:49:49.473Z,7.67
2019-02-24T00:52:19.845Z,8.23
2019-02-24T00:54:51.251Z,7.47
2019-02-24T00:57:21.506Z,7.35
2019-02-24T00:59:51.959Z,8.93
2019-02-24T01:02:22.292Z,8.85
2019-02-24T01:04:52.700Z,7.80
2019-02-24T01:07:22.989Z,6.70
2019-02-24T01:09:53.400Z,7.70
2019-02-24T01:12:23.640Z,8.53
2019-02-24T01:14:54.018Z,8.95
2019-02-24T01:17:24.315Z,7.55
2019-02-24T01:19:54.562Z,8.88
2019-02-24T01:22:24.906Z,6.85
2019-02-24T01:24:55.250Z,8.43
2019-02-24T01:27:25.573Z,8.40
2019-02-24T01:29:55.892Z,7.97
2019-02-24T01:32:26.153Z,9.08
2019-02-24T01:34:56.461Z,8.38
2019-02-24T01:37:26.738Z,8.28
2019-02-24T01:39:57.117Z,7.72
2019-02-24T01:42:27.324Z,6.97
2019-02-24T01:44:57.590Z,7.87
2019-02-24T01:47:27.938Z,8.53
2019-02-24T01:49:58.304Z,7.83
2019-02-24T01:52:28.574Z,7.60
2019-02-24T01:54:58.858Z,7.70
2019-02-24T01:57:29.155Z,6.92
2019-02-24T01:59:59.375Z,7.45
2019-02-24T02:02:31.756Z,8.23
2019-02-24T02:05:02.182Z,8.68
2019-02-24T02:07:33.801Z,6.65
2019-02-24T02:10:06.111Z,7.62
2019-02-24T02:12:36.436Z,7.10
2019-02-24T02:15:06.765Z,7.62
2019-02-24T02:17:36.980Z,7.65
2019-02-24T02:20:07.464Z,6.30
2019-02-24T02:22:37.729Z,8.05
2019-02-24T02:25:08.060Z,8.95
2019-02-24T02:27:40.640Z,7.95
2019-02-24T02:30:11.079Z,6.35
2019-02-24T02:32:41.667Z,7.65
2019-02-24T02:35:12.089Z,7.87
2019-02-24T02:37:42.348Z,9.25
2019-02-24T02:40:12.678Z,6.45
2019-02-24T02:42:43.036Z,7.15
2019-02-24T02:45:13.351Z,8.28
2019-02-24T02:47:45.330Z,8.23
2019-02-24T02:50:15.525Z,6.95
2019-02-24T02:52:45.965Z,6.33
2019-02-24T02:55:16.233Z,6.92
2019-02-24T02:57:46.583Z,8.85
2019-02-24T03:00:32.210Z,6.85
2019-02-24T03:03:02.558Z,8.75
2019-02-24T03:05:32.784Z,8.13
2019-02-24T03:08:06.626Z,8.23
2019-02-24T03:10:36.929Z,7.08
2019-02-24T03:13:07.491Z,6.55
2019-02-24T03:15:37.849Z,6.47
2019-02-24T03:18:08.174Z,6.72
2019-02-24T03:20:38.521Z,6.05
2019-02-24T03:23:12.278Z,7.42
2019-02-24T03:25:43.789Z,7.10
2019-02-24T03:28:14.137Z,6.85
2019-02-24T03:30:45.456Z,6.20
2019-02-24T03:33:15.846Z,7.78
2019-02-24T03:35:46.194Z,6.35
2019-02-24T03:38:16.462Z,7.00
2019-02-24T03:40:46.790Z,7.83
2019-02-24T03:43:17.143Z,8.08
2019-02-24T03:45:47.391Z,6.78
2019-02-24T03:48:17.697Z,7.15
2019-02-24T03:50:48.038Z,6.58
2019-02-24T03:53:18.299Z,6.20
2019-02-24T03:55:48.615Z,6.92
2019-02-24T03:58:18.976Z,7.50
2019-02-24T04:00:49.257Z,7.50
2019-02-24T04:03:19.498Z,7.03
2019-02-24T04:05:49.839Z,6.53
2019-02-24T04:08:20.155Z,7.58
2019-02-24T04:10:50.352Z,6.75
2019-02-24T04:13:20.661Z,7.72
2019-02-24T04:15:50.920Z,6.00
2019-02-24T04:18:21.913Z,7.03
2019-02-24T04:20:53.288Z,7.08
2019-02-24T04:23:23.843Z,7.00
2019-02-24T04:25:54.134Z,5.87
2019-02-24T04:28:24.431Z,6.00
2019-02-24T04:30:54.615Z,6.10
2019-02-24T04:33:24.897Z,6.35
2019-02-24T04:35:55.257Z,5.78
2019-02-24T04:38:25.595Z,5.40
2019-02-24T04:40:55.897Z,6.17
2019-02-24T04:43:26.130Z,6.87
2019-02-24T04:45:56.425Z,5.78
2019-02-24T04:48:27.776Z,6.30
2019-02-24T04:50:58.095Z,7.00
2019-02-24T04:53:28.380Z,5.50
2019-02-24T04:55:58.635Z,5.80
2019-02-24T04:58:29.818Z,5.97
2019-02-24T05:01:00.144Z,6.45
2019-02-24T05:03:30.476Z,6.58
2019-02-24T05:06:01.759Z,5.85
2019-02-24T05:08:32.141Z,6.47
2019-02-24T05:11:02.432Z,6.12
2019-02-24T05:13:32.746Z,5.58
2019-02-24T05:16:03.185Z,5.33
2019-02-24T05:18:33.486Z,5.47
2019-02-24T05:21:03.813Z,6.15
2019-02-24T05:23:34.075Z,5.97
2019-02-24T05:26:04.610Z,6.35
2019-02-24T05:28:35.041Z,6.17
2019-02-24T05:31:05.388Z,5.80
2019-02-24T05:33:35.704Z,5.45
2019-02-24T05:36:05.998Z,5.87
2019-02-24T05:38:37.331Z,4.97
2019-02-24T05:41:07.580Z,5.47
2019-02-24T05:43:37.835Z,5.62
2019-02-24T05:46:09.234Z,5.85
2019-02-24T05:48:39.559Z,5.33
2019-02-24T05:51:09.772Z,4.70
2019-02-24T05:53:40.150Z,5.35
2019-02-24T05:56:10.494Z,5.15
2019-02-24T05:58:40.954Z,6.90
2019-02-24T06:01:11.363Z,5.05
2019-02-24T06:03:41.596Z,5.20
2019-02-24T06:06:11.918Z,5.17
2019-02-24T06:08:43.812Z,5.03
2019-02-24T06:11:14.142Z,5.50
2019-02-24T06:13:44.394Z,4.65
2019-02-24T06:16:14.669Z,5.37
2019-02-24T06:18:44.899Z,5.60
2019-02-24T06:21:15.206Z,5.45
2019-02-24T06:23:44.447Z,5.12
2019-02-24T06:26:14.605Z,4.50
2019-02-24T06:28:44.915Z,4.97
2019-02-24T06:31:15.207Z,5.37
2019-02-24T06:33:47.682Z,5.12
2019-02-24T06:36:17.937Z,5.53
2019-02-24T06:38:48.237Z,6.17
2019-02-24T06:41:18.445Z,7.15
2019-02-24T06:43:51.364Z,7.78
2019-02-24T06:46:24.152Z,9.20
2019-02-24T06:48:54.527Z,8.43
2019-02-24T06:51:24.901Z,7.10
2019-02-24T06:53:55.130Z,7.55
2019-02-24T06:56:25.465Z,7.97
2019-02-24T06:58:55.803Z,6.60
2019-02-24T07:01:26.108Z,6.58
2019-02-24T07:03:56.384Z,6.60
2019-02-24T07:06:26.722Z,7.85
2019-02-24T07:08:57.068Z,7.20
2019-02-24T07:11:27.458Z,5.75
2019-02-24T07:13:57.730Z,6.15
2019-02-24T07:16:28.049Z,5.78
2019-02-24T07:18:58.340Z,6.83
2019-02-24T07:21:28.603Z,6.42
2019-02-24T07:23:58.948Z,6.00
2019-02-24T07:26:29.205Z,6.03
2019-02-24T07:28:59.580Z,6.12
2019-02-24T07:31:29.892Z,6.08
2019-02-24T07:34:00.198Z,6.03
2019-02-24T07:36:30.501Z,5.67
2019-02-24T07:39:00.764Z,5.92
2019-02-24T07:41:32.614Z,5.55
2019-02-24T07:44:01.771Z,7.45
2019-02-24T07:46:33.185Z,6.62
2019-02-24T07:49:03.514Z,5.05
2019-02-24T07:51:33.872Z,5.67
2019-02-24T07:54:04.105Z,6.28
2019-02-24T07:56:34.433Z,5.37
2019-02-24T07:59:05.652Z,7.17
2019-02-24T08:01:36.984Z,6.47
2019-02-24T08:04:07.271Z,6.30
2019-02-24T08:06:37.615Z,6.30
2019-02-24T08:09:08.037Z,6.20
2019-02-24T08:11:38.328Z,6.10
2019-02-24T08:14:08.702Z,5.83
2019-02-24T08:16:39.143Z,5.70
2019-02-24T08:19:09.575Z,6.15
2019-02-24T08:21:39.870Z,5.80
2019-02-24T08:24:10.103Z,5.58
2019-02-24T08:26:40.393Z,5.58
2019-02-24T08:29:10.710Z,5.92
2019-02-24T08:31:40.995Z,6.62
2019-02-24T08:34:11.389Z,5.85
2019-02-24T08:36:41.701Z,5.28
2019-02-24T08:39:12.014Z,5.78
2019-02-24T08:41:42.298Z,5.50
2019-02-24T08:44:12.673Z,6.60
2019-02-24T08:46:43.000Z,6.25
2019-02-24T08:49:13.278Z,5.83
2019-02-24T08:51:44.523Z,5.35
2019-02-24T08:54:14.917Z,5.03
2019-02-24T08:56:45.296Z,5.35
2019-02-24T08:59:15.619Z,5.28
2019-02-24T09:01:45.838Z,5.03
2019-02-24T09:04:18.908Z,5.05
2019-02-24T09:06:49.210Z,4.78
2019-02-24T09:09:19.727Z,5.08
2019-02-24T09:11:50.071Z,5.92
2019-02-24T09:14:21.521Z,4.53
2019-02-24T09:16:51.994Z,4.90
2019-02-24T09:19:22.212Z,6.03
2019-02-24T09:21:52.491Z,4.65
2019-02-24T09:24:23.917Z,4.78
2019-02-24T09:26:54.325Z,4.72
2019-02-24T09:29:24.581Z,5.37
2019-02-24T09:31:55.085Z,5.28
2019-02-24T09:34:37.056Z,5.20
2019-02-24T09:37:07.304Z,4.58
2019-02-24T09:39:37.549Z,4.50
2019-02-24T09:42:07.863Z,4.45
2019-02-24T09:44:38.107Z,4.97
2019-02-24T09:47:08.343Z,6.03
2019-02-24T09:49:38.800Z,5.03
2019-02-24T09:52:09.110Z,6.45
2019-02-24T09:54:39.343Z,4.78
2019-02-24T09:57:09.703Z,5.55
2019-02-24T09:59:39.966Z,5.05
2019-02-24T10:02:10.241Z,4.47
2019-02-24T10:04:40.660Z,4.37
2019-02-24T10:07:10.864Z,4.87
2019-02-24T10:09:42.284Z,6.03
2019-02-24T10:12:12.526Z,4.78
2019-02-24T10:14:44.006Z,6.25
2019-02-24T10:17:14.192Z,4.72
2019-02-24T10:19:45.630Z,4.22
2019-02-24T10:22:15.957Z,4.92
2019-02-24T10:24:48.029Z,4.40
2019-02-24T10:27:18.365Z,6.33
2019-02-24T10:29:48.621Z,5.05
2019-02-24T10:32:21.663Z,5.30
2019-02-24T10:34:51.996Z,8.05
2019-02-24T10:37:22.969Z,7.65
2019-02-24T10:39:53.291Z,4.92
2019-02-24T10:42:23.555Z,5.25
2019-02-24T10:44:53.813Z,5.85
2019-02-24T10:47:25.065Z,5.45
2019-02-24T10:49:56.282Z,4.53
2019-02-24T10:52:26.528Z,4.15
2019-02-24T10:54:58.991Z,7.70
2019-02-24T10:57:29.310Z,4.35
2019-02-24T11:00:00.724Z,6.58
2019-02-24T11:02:32.427Z,4.00
2019-02-24T11:05:02.704Z,5.78
2019-02-24T11:07:34.043Z,4.35
2019-02-24T11:10:04.550Z,4.30
2019-02-24T11:12:36.192Z,3.98
2019-02-24T11:15:06.816Z,4.22
2019-02-24T11:17:37.143Z,5.10
2019-02-24T11:20:08.512Z,4.12
2019-02-24T11:22:39.185Z,4.80
2019-02-24T11:25:10.115Z,5.12
2019-02-24T11:27:41.913Z,4.42
2019-02-24T11:30:12.237Z,4.37
2019-02-24T11:32:42.552Z,4.03
2019-02-24T11:35:12.952Z,4.62
2019-02-24T11:37:43.216Z,4.22
2019-02-24T11:40:13.469Z,4.28
2019-02-24T11:42:43.790Z,3.62
2019-02-24T11:45:13.975Z,3.12
2019-02-24T11:47:45.328Z,4.70
2019-02-24T11:50:16.393Z,3.67
2019-02-24T11:52:47.858Z,3.77
2019-02-24T11:55:18.206Z,4.72
2019-02-24T11:57:48.601Z,3.70
2019-02-24T12:00:21.929Z,3.33
2019-02-24T12:02:52.274Z,3.42
2019-02-24T12:05:22.628Z,3.80
2019-02-24T12:07:53.034Z,4.03
2019-02-24T12:10:23.719Z,5.58
2019-02-24T12:12:54.956Z,3.35
2019-02-24T12:15:25.208Z,3.90
2019-02-24T12:17:55.507Z,4.90
2019-02-24T12:20:26.791Z,3.42
2019-02-24T12:22:57.121Z,4.08
2019-02-24T12:25:27.496Z,3.62
2019-02-24T12:27:57.884Z,3.50
2019-02-24T12:30:28.192Z,5.30
2019-02-24T12:32:58.791Z,3.37
2019-02-24T12:35:29.039Z,3.70
2019-02-24T12:37:59.288Z,3.22
2019-02-24T12:40:31.130Z,3.55
2019-02-24T12:43:01.439Z,3.35
2019-02-24T12:45:31.782Z,4.55
2019-02-24T12:48:02.034Z,3.20
2019-02-24T12:50:32.594Z,4.35
2019-02-24T12:53:02.940Z,3.87
2019-02-24T12:55:33.258Z,3.70
2019-02-24T12:58:03.631Z,3.35
2019-02-24T13:00:33.903Z,4.05
2019-02-24T13:03:04.210Z,3.25
2019-02-24T13:05:34.482Z,3.62
2019-02-24T13:08:04.772Z,2.92
2019-02-24T13:10:35.095Z,4.33
2019-02-24T13:13:05.421Z,4.47
2019-02-24T13:15:35.653Z,3.42
2019-02-24T13:18:06.901Z,3.50
2019-02-24T13:20:37.184Z,3.33
2019-02-24T13:23:07.650Z,5.00
2019-02-24T13:25:37.995Z,3.70
2019-02-24T13:28:08.246Z,3.30
2019-02-24T13:30:41.449Z,3.02
2019-02-24T13:33:11.877Z,3.98
2019-02-24T13:35:42.217Z,3.22
2019-02-24T13:38:12.508Z,3.12
2019-02-24T13:40:42.811Z,2.80
2019-02-24T13:43:14.114Z,3.55
2019-02-24T13:45:44.546Z,3.98
2019-02-24T13:48:14.854Z,3.40
2019-02-24T13:50:45.190Z,3.17
2019-02-24T13:53:15.541Z,2.70
2019-02-24T13:55:45.805Z,3.20
2019-02-24T13:58:16.206Z,3.70
2019-02-24T14:00:46.933Z,3.30
2019-02-24T14:03:17.147Z,3.22
2019-02-24T14:05:47.366Z,2.92
2019-02-24T14:08:17.678Z,3.20
2019-02-24T14:10:49.252Z,3.05
2019-02-24T14:13:19.556Z,2.85
2019-02-24T14:15:52.840Z,3.60
2019-02-24T14:18:23.132Z,3.70
2019-02-24T14:20:53.827Z,3.67
2019-02-24T14:23:24.146Z,3.45
2019-02-24T14:25:54.460Z,3.72
2019-02-24T14:28:24.768Z,3.30
2019-02-24T14:30:55.033Z,2.87
2019-02-24T14:33:25.320Z,3.35
2019-02-24T14:35:55.714Z,2.75
2019-02-24T14:38:25.976Z,3.60
2019-02-24T14:40:56.182Z,3.70
2019-02-24T14:43:26.453Z,3.47
2019-02-24T14:45:57.749Z,3.37
2019-02-24T14:48:28.016Z,3.15
2019-02-24T14:50:58.362Z,3.33
2019-02-24T14:53:28.781Z,3.15
2019-02-24T14:55:59.001Z,2.77
2019-02-24T14:58:29.276Z,3.42
2019-02-24T15:01:00.801Z,3.22
2019-02-24T15:03:31.173Z,3.00
2019-02-24T15:06:01.773Z,3.10
2019-02-24T15:08:34.324Z,2.77
2019-02-24T15:11:04.720Z,3.20
2019-02-24T15:13:34.982Z,3.42
2019-02-24T15:16:05.391Z,4.05
2019-02-24T15:18:35.583Z,3.40
2019-02-24T15:21:05.868Z,2.75
2019-02-24T15:23:38.758Z,3.92
2019-02-24T15:26:08.964Z,3.60
2019-02-24T15:28:39.394Z,3.00
2019-02-24T15:31:09.649Z,3.55
2019-02-24T15:33:40.004Z,3.27
2019-02-24T15:36:10.238Z,2.95
2019-02-24T15:38:41.637Z,3.15
2019-02-24T15:41:11.857Z,2.60
2019-02-24T15:43:42.106Z,2.90
2019-02-24T15:46:12.438Z,3.00
2019-02-24T15:48:42.785Z,3.02
2019-02-24T15:51:14.641Z,2.95
2019-02-24T15:53:44.919Z,2.90
2019-02-24T15:56:15.463Z,3.55
2019-02-24T15:58:46.913Z,3.35
2019-02-24T16:01:17.114Z,2.98
2019-02-24T16:03:47.367Z,4.12
2019-02-24T16:06:17.748Z,3.58
2019-02-24T16:08:48.080Z,3.12
2019-02-24T16:11:18.416Z,4.12
2019-02-24T16:13:49.853Z,2.87
2019-02-24T16:16:20.204Z,4.95
2019-02-24T16:18:50.478Z,3.10
2019-02-24T16:21:20.835Z,3.40
2019-02-24T16:23:51.040Z,3.10
2019-02-24T16:26:21.336Z,3.52
2019-02-24T16:28:51.701Z,3.33
2019-02-24T16:31:20.794Z,2.80
2019-02-24T16:33:52.022Z,2.92
2019-02-24T16:36:22.368Z,3.70
2019-02-24T16:38:52.693Z,3.37
2019-02-24T16:41:23.953Z,3.40
2019-02-24T16:43:55.631Z,2.77
2019-02-24T16:46:25.949Z,3.55
2019-02-24T16:48:56.320Z,3.55
2019-02-24T16:51:26.704Z,3.37
2019-02-24T16:53:57.034Z,3.35
2019-02-24T16:56:27.356Z,4.20
2019-02-24T16:58:58.744Z,3.72
2019-02-24T17:01:29.339Z,2.98
2019-02-24T17:03:59.731Z,3.98
2019-02-24T17:06:32.309Z,3.70
2019-02-24T17:09:03.371Z,3.30
2019-02-24T17:11:36.492Z,4.12
2019-02-24T17:14:06.872Z,4.05
2019-02-24T17:16:37.075Z,3.42
2019-02-24T17:19:07.458Z,4.33
2019-02-24T17:21:37.896Z,3.65
2019-02-24T17:24:08.567Z,3.77
2019-02-24T17:26:38.866Z,4.03
2019-02-24T17:29:10.286Z,4.55
2019-02-24T17:31:40.600Z,3.40
2019-02-24T17:34:11.168Z,4.30
2019-02-24T17:36:42.570Z,3.80
2019-02-24T17:39:14.488Z,4.28
2019-02-24T17:41:45.261Z,4.03
2019-02-24T17:44:15.618Z,4.65
2019-02-24T17:46:47.335Z,4.42
2019-02-24T17:49:17.712Z,3.95
2019-02-24T17:51:49.186Z,3.87
2019-02-24T17:54:19.504Z,4.25
2019-02-24T17:56:49.857Z,4.87
2019-02-24T17:59:20.187Z,3.30
2019-02-24T18:01:50.587Z,3.85
2019-02-24T18:04:20.826Z,5.55
2019-02-24T18:06:51.181Z,3.30
2019-02-24T18:09:22.435Z,4.30
2019-02-24T18:11:52.778Z,5.03
2019-02-24T18:14:24.939Z,5.05
2019-02-24T18:16:55.242Z,4.00
2019-02-24T18:19:25.539Z,4.00
2019-02-24T18:21:55.934Z,4.72
2019-02-24T18:24:26.277Z,3.83
2019-02-24T18:26:56.663Z,4.65
2019-02-24T18:29:29.295Z,4.70
2019-02-24T18:32:00.053Z,4.40
2019-02-24T18:34:32.162Z,4.90
2019-02-24T18:37:02.898Z,4.00
2019-02-24T18:39:33.247Z,4.72
2019-02-24T18:42:03.780Z,4.30
2019-02-24T18:44:34.189Z,4.75
2019-02-24T18:47:04.661Z,4.53
2019-02-24T18:49:35.150Z,4.03
2019-02-24T18:52:05.671Z,5.03
2019-02-24T18:54:38.858Z,4.65
2019-02-24T18:57:09.285Z,4.42
2019-02-24T18:59:39.675Z,4.92
2019-02-24T19:02:10.104Z,5.05
2019-02-24T19:04:40.812Z,4.33
2019-02-24T19:07:11.307Z,4.08
2019-02-24T19:09:41.659Z,3.98
2019-02-24T19:12:14.178Z,4.45
2019-02-24T19:14:44.650Z,4.72
2019-02-24T19:17:15.118Z,4.30
2019-02-24T19:19:45.485Z,4.33
2019-02-24T19:22:15.835Z,5.30
2019-02-24T19:24:48.472Z,4.65
2019-02-24T19:27:18.894Z,5.40
2019-02-24T19:29:49.823Z,4.75
2019-02-24T19:32:20.206Z,4.40
2019-02-24T19:34:50.487Z,4.53
2019-02-24T19:37:20.899Z,4.95
2019-02-24T19:39:51.230Z,4.87
2019-02-24T19:42:21.621Z,5.03
2019-02-24T19:44:51.920Z,5.62
2019-02-24T19:47:22.366Z,5.17
2019-02-24T19:49:52.637Z,4.30
2019-02-24T19:52:22.931Z,4.28
2019-02-24T19:54:53.258Z,6.75
2019-02-24T19:57:23.564Z,4.78
2019-02-24T19:59:56.182Z,5.47
2019-02-24T20:02:26.474Z,5.00
2019-02-24T20:04:57.817Z,4.85
2019-02-24T20:07:28.005Z,4.42
2019-02-24T20:09:58.335Z,5.35
2019-02-24T20:12:29.119Z,5.50
2019-02-24T20:15:00.429Z,6.03
2019-02-24T20:17:30.698Z,4.87
2019-02-24T20:20:00.948Z,4.97
2019-02-24T20:22:32.727Z,6.15
2019-02-24T20:25:02.953Z,5.05
2019-02-24T20:27:36.059Z,5.87
2019-02-24T20:30:10.325Z,5.62
2019-02-24T20:32:40.846Z,4.97
2019-02-24T20:35:11.292Z,5.53
2019-02-24T20:37:42.001Z,5.78
2019-02-24T20:40:12.364Z,5.65
2019-02-24T20:42:42.677Z,6.62
2019-02-24T20:45:13.820Z,6.67
2019-02-24T20:47:44.278Z,5.35
2019-02-24T20:50:15.885Z,6.15
2019-02-24T20:52:47.613Z,5.15
2019-02-24T20:55:17.982Z,5.87
2019-02-24T20:57:48.384Z,5.55
2019-02-24T21:00:24.485Z,6.22
2019-02-24T21:02:54.814Z,6.25
2019-02-24T21:05:25.073Z,5.80
2019-02-24T21:07:55.470Z,5.85
2019-02-24T21:10:25.716Z,6.03
2019-02-24T21:12:56.024Z,5.67
2019-02-24T21:15:26.336Z,9.63
2019-02-24T21:17:56.640Z,8.38
2019-02-24T21:20:28.137Z,9.73
2019-02-24T21:22:58.391Z,8.10
2019-02-24T21:25:28.641Z,10.30
2019-02-24T21:27:59.131Z,18.45
2019-02-24T21:30:31.707Z,9.20
2019-02-24T21:33:01.558Z,10.82
2019-02-24T21:35:30.827Z,8.95
2019-02-24T21:38:00.884Z,11.33
2019-02-24T21:40:32.255Z,10.30
2019-02-24T21:43:02.545Z,8.55
2019-02-24T21:45:32.891Z,8.73
2019-02-24T21:48:03.479Z,6.53
2019-02-24T21:50:33.749Z,8.58
2019-02-24T21:53:06.963Z,9.20
2019-02-24T21:55:37.279Z,8.60
2019-02-24T21:58:07.594Z,8.15
2019-02-24T22:00:38.516Z,9.63
2019-02-24T22:03:09.846Z,7.42
2019-02-24T22:05:40.143Z,7.15
2019-02-24T22:08:12.484Z,7.70
2019-02-24T22:10:42.498Z,7.65
2019-02-24T22:13:13.697Z,6.72
2019-02-24T22:15:43.944Z,6.20
2019-02-24T22:18:14.193Z,8.00
2019-02-24T22:20:44.602Z,6.50
2019-02-24T22:23:14.916Z,6.28
2019-02-24T22:25:45.252Z,5.40
2019-02-24T22:28:15.514Z,6.62
2019-02-24T22:30:45.901Z,8.03
2019-02-24T22:33:17.571Z,6.37
2019-02-24T22:35:49.953Z,8.78
2019-02-24T22:38:20.205Z,9.53
2019-02-24T22:40:54.373Z,6.55
2019-02-24T22:43:22.490Z,6.78
2019-02-24T22:45:54.493Z,8.55
2019-02-24T22:48:25.140Z,6.42
2019-02-24T22:50:56.987Z,7.40
2019-02-24T22:53:27.378Z,6.47
2019-02-24T22:55:57.681Z,6.22
2019-02-24T22:58:30.506Z,5.70
2019-02-24T23:01:09.924Z,7.15
2019-02-24T23:03:46.857Z,7.00
2019-02-24T23:06:17.588Z,6.72
2019-02-24T23:08:47.856Z,6.75
2019-02-24T23:11:18.122Z,5.80
2019-02-24T23:13:48.579Z,5.35
2019-02-24T23:16:18.781Z,5.83
2019-02-24T23:18:49.113Z,6.55
2019-02-24T23:21:19.466Z,8.15
2019-02-24T23:23:49.709Z,8.03
2019-02-24T23:26:21.353Z,6.08
2019-02-24T23:29:13.703Z,7.15
2019-02-24T23:31:44.191Z,6.55
2019-02-24T23:34:14.804Z,6.87
2019-02-24T23:36:45.392Z,6.05
2019-02-24T23:39:17.466Z,5.97
2019-02-24T23:41:48.400Z,7.22
2019-02-24T23:44:18.754Z,6.75
2019-02-24T23:46:49.168Z,6.03
2019-02-24T23:49:19.543Z,8.05
2019-02-24T23:51:50.119Z,6.97
2019-02-24T23:54:22.459Z,8.13
2019-02-24T23:56:52.897Z,5.67
2019-02-24T23:59:23.159Z,5.33
